Terminal Aerodrome Forecast
Issued by NWS Lake Charles, LA

Home | Current Version | Previous Version | Text Only | Print | Product List | Glossary On
Versions: 1 2 3 4 5 6 7 8 9 10 11 12
578
FTUS44 KLCH 210520
TAFLCH
TAF
KLCH 210520Z 2106/2206 VRB03KT P6SM SCT250
     FM211500 09005KT P6SM FEW035
     FM211800 13008KT P6SM VCSH SCT040=

USA.gov is the U.S. government's official web portal to all federal, state and local government web resources and services.